Air Park, Nebraska
Current Conditions -  °F | °C
As of 3:54 AM on Friday 31 Oct 2014 (Local Time) from KLNK Reporting Station
Scattered Clouds Scattered Clouds  
Wind Chill: 20°   Ceiling: Unl
Heat Index: 33°   Visibility: 10mi
Dew Point: 22°   Wind: 24mph
Humidity: 64%   Direction: 20°NNE
Pressure: 30.49"   Gusts: 33mph
Location:  40.8731°N, 96.8015°W
Report Text: KLNK 310854Z AUTO 02021G29KT 10SM SCT026 01/M06 A3049 RMK AO2 PK WND 36032/0816 SLP328 T00061056 51025
Loading
Personal Weather Stations






























Interactive Weather Map New forecast layout! Learn more

10-Day Weather Forecast

Advertisements
Track Severe Weather on mobile